sensor_id;sensor_type;location;lat;lon;timestamp;temperature;humidity
40600;DHT22;26309;50.924;4.754;2023-04-25T00:01:47;9.70;99.90
40600;DHT22;26309;50.924;4.754;2023-04-25T00:04:13;9.60;99.90
40600;DHT22;26309;50.924;4.754;2023-04-25T00:06:39;9.70;99.90
40600;DHT22;26309;50.924;4.754;2023-04-25T00:09:05;9.70;99.90
40600;DHT22;26309;50.924;4.754;2023-04-25T00:11:35;9.60;99.90
40600;DHT22;26309;50.924;4.754;2023-04-25T00:14:00;9.60;99.90
40600;DHT22;26309;50.924;4.754;2023-04-25T00:16:31;9.80;99.90
40600;DHT22;26309;50.924;4.754;2023-04-25T00:18:59;9.90;99.90
40600;DHT22;26309;50.924;4.754;2023-04-25T00:21:27;10.00;99.90
40600;DHT22;26309;50.924;4.754;2023-04-25T00:23:54;9.90;99.90
40600;DHT22;26309;50.924;4.754;2023-04-25T00:26:20;9.90;99.90
40600;DHT22;26309;50.924;4.754;2023-04-25T00:28:47;9.90;99.90
40600;DHT22;26309;50.924;4.754;2023-04-25T00:31:13;9.90;99.90
40600;DHT22;26309;50.924;4.754;2023-04-25T00:33:39;9.90;99.90
40600;DHT22;26309;50.924;4.754;2023-04-25T00:36:06;9.90;99.90
40600;DHT22;26309;50.924;4.754;2023-04-25T00:38:32;9.90;99.90
40600;DHT22;26309;50.924;4.754;2023-04-25T00:40:58;9.80;99.90
40600;DHT22;26309;50.924;4.754;2023-04-25T00:43:26;9.90;99.90
40600;DHT22;26309;50.924;4.754;2023-04-25T00:45:53;9.90;99.90
40600;DHT22;26309;50.924;4.754;2023-04-25T00:48:22;9.90;99.90
40600;DHT22;26309;50.924;4.754;2023-04-25T00:50:54;9.80;99.90
40600;DHT22;26309;50.924;4.754;2023-04-25T00:53:24;9.80;99.90
40600;DHT22;26309;50.924;4.754;2023-04-25T00:55:51;9.70;99.90
40600;DHT22;26309;50.924;4.754;2023-04-25T00:58:17;9.80;99.90
40600;DHT22;26309;50.924;4.754;2023-04-25T01:00:45;9.80;99.90
40600;DHT22;26309;50.924;4.754;2023-04-25T01:03:13;9.70;99.90
40600;DHT22;26309;50.924;4.754;2023-04-25T01:05:40;9.70;99.90
40600;DHT22;26309;50.924;4.754;2023-04-25T01:08:07;9.90;99.90
40600;DHT22;26309;50.924;4.754;2023-04-25T01:10:33;9.90;99.90
40600;DHT22;26309;50.924;4.754;2023-04-25T01:12:59;9.90;99.90
40600;DHT22;26309;50.924;4.754;2023-04-25T01:15:25;9.80;99.90
40600;DHT22;26309;50.924;4.754;2023-04-25T01:17:51;9.80;99.90
40600;DHT22;26309;50.924;4.754;2023-04-25T01:20:17;9.70;99.90
40600;DHT22;26309;50.924;4.754;2023-04-25T01:22:43;9.60;99.90
40600;DHT22;26309;50.924;4.754;2023-04-25T01:25:09;9.60;99.90
40600;DHT22;26309;50.924;4.754;2023-04-25T01:27:37;9.60;99.90
40600;DHT22;26309;50.924;4.754;2023-04-25T01:30:04;9.70;99.90
40600;DHT22;26309;50.924;4.754;2023-04-25T01:32:30;9.60;99.90
40600;DHT22;26309;50.924;4.754;2023-04-25T01:35:05;9.70;99.90
40600;DHT22;26309;50.924;4.754;2023-04-25T01:37:39;9.70;99.90
40600;DHT22;26309;50.924;4.754;2023-04-25T01:40:07;9.60;99.90
40600;DHT22;26309;50.924;4.754;2023-04-25T01:42:35;9.60;99.90
40600;DHT22;26309;50.924;4.754;2023-04-25T01:45:01;9.60;99.90
40600;DHT22;26309;50.924;4.754;2023-04-25T01:47:27;9.70;99.90
40600;DHT22;26309;50.924;4.754;2023-04-25T01:49:54;9.70;99.90
40600;DHT22;26309;50.924;4.754;2023-04-25T01:52:20;9.70;99.90
40600;DHT22;26309;50.924;4.754;2023-04-25T01:54:46;9.60;99.90
40600;DHT22;26309;50.924;4.754;2023-04-25T01:57:13;9.50;99.90
40600;DHT22;26309;50.924;4.754;2023-04-25T01:59:39;9.50;99.90
40600;DHT22;26309;50.924;4.754;2023-04-25T02:02:05;9.50;99.90
40600;DHT22;26309;50.924;4.754;2023-04-25T02:04:31;9.50;99.90
40600;DHT22;26309;50.924;4.754;2023-04-25T02:06:57;9.40;99.90
40600;DHT22;26309;50.924;4.754;2023-04-25T02:09:23;9.40;99.90
40600;DHT22;26309;50.924;4.754;2023-04-25T02:11:49;9.40;99.90
40600;DHT22;26309;50.924;4.754;2023-04-25T02:14:15;9.30;99.90
40600;DHT22;26309;50.924;4.754;2023-04-25T02:16:41;9.40;99.90
40600;DHT22;26309;50.924;4.754;2023-04-25T02:19:09;9.40;99.90
40600;DHT22;26309;50.924;4.754;2023-04-25T02:21:36;9.30;99.90
40600;DHT22;26309;50.924;4.754;2023-04-25T02:24:02;9.30;99.90
40600;DHT22;26309;50.924;4.754;2023-04-25T02:26:28;9.30;99.90
40600;DHT22;26309;50.924;4.754;2023-04-25T02:28:56;9.40;99.90
40600;DHT22;26309;50.924;4.754;2023-04-25T02:31:22;9.40;99.90
40600;DHT22;26309;50.924;4.754;2023-04-25T02:33:48;9.30;99.90
40600;DHT22;26309;50.924;4.754;2023-04-25T02:36:14;9.40;99.90
40600;DHT22;26309;50.924;4.754;2023-04-25T02:38:40;9.30;99.90
40600;DHT22;26309;50.924;4.754;2023-04-25T02:41:06;9.20;99.90
40600;DHT22;26309;50.924;4.754;2023-04-25T02:43:32;9.20;99.90
40600;DHT22;26309;50.924;4.754;2023-04-25T02:45:58;9.20;99.90
40600;DHT22;26309;50.924;4.754;2023-04-25T02:48:24;9.20;99.90
40600;DHT22;26309;50.924;4.754;2023-04-25T02:50:49;9.10;99.90
40600;DHT22;26309;50.924;4.754;2023-04-25T02:53:15;9.00;99.90
40600;DHT22;26309;50.924;4.754;2023-04-25T02:55:41;9.00;99.90
40600;DHT22;26309;50.924;4.754;2023-04-25T02:58:07;9.00;99.90
40600;DHT22;26309;50.924;4.754;2023-04-25T03:00:33;8.80;99.90
40600;DHT22;26309;50.924;4.754;2023-04-25T03:02:59;8.80;99.90
40600;DHT22;26309;50.924;4.754;2023-04-25T03:05:24;8.70;99.90
40600;DHT22;26309;50.924;4.754;2023-04-25T03:07:50;8.80;99.90
40600;DHT22;26309;50.924;4.754;2023-04-25T03:10:16;8.80;99.90
40600;DHT22;26309;50.924;4.754;2023-04-25T03:12:42;8.80;99.90
40600;DHT22;26309;50.924;4.754;2023-04-25T03:15:08;8.80;99.90
40600;DHT22;26309;50.924;4.754;2023-04-25T03:17:34;9.00;99.90
40600;DHT22;26309;50.924;4.754;2023-04-25T03:20:00;8.90;99.90
40600;DHT22;26309;50.924;4.754;2023-04-25T03:22:29;9.00;99.90
40600;DHT22;26309;50.924;4.754;2023-04-25T03:24:55;9.00;99.90
40600;DHT22;26309;50.924;4.754;2023-04-25T03:27:21;9.00;99.90
40600;DHT22;26309;50.924;4.754;2023-04-25T03:29:47;9.10;99.90
40600;DHT22;26309;50.924;4.754;2023-04-25T03:32:13;9.00;99.90
40600;DHT22;26309;50.924;4.754;2023-04-25T03:34:38;8.80;99.90
40600;DHT22;26309;50.924;4.754;2023-04-25T03:37:04;8.50;99.90
40600;DHT22;26309;50.924;4.754;2023-04-25T03:39:30;8.60;99.90
40600;DHT22;26309;50.924;4.754;2023-04-25T03:41:56;8.50;99.90
40600;DHT22;26309;50.924;4.754;2023-04-25T03:44:22;8.30;99.90
40600;DHT22;26309;50.924;4.754;2023-04-25T03:46:47;8.30;99.90
40600;DHT22;26309;50.924;4.754;2023-04-25T03:49:13;8.40;99.90
40600;DHT22;26309;50.924;4.754;2023-04-25T03:51:39;8.20;99.90
40600;DHT22;26309;50.924;4.754;2023-04-25T03:54:05;8.20;99.90
40600;DHT22;26309;50.924;4.754;2023-04-25T03:56:31;8.20;99.90
40600;DHT22;26309;50.924;4.754;2023-04-25T03:58:57;8.10;99.90
40600;DHT22;26309;50.924;4.754;2023-04-25T04:01:23;7.80;99.90
40600;DHT22;26309;50.924;4.754;2023-04-25T04:03:48;7.60;99.90
40600;DHT22;26309;50.924;4.754;2023-04-25T04:06:15;7.50;99.90
40600;DHT22;26309;50.924;4.754;2023-04-25T04:08:40;7.60;99.90
40600;DHT22;26309;50.924;4.754;2023-04-25T04:11:06;7.70;99.90
40600;DHT22;26309;50.924;4.754;2023-04-25T04:13:32;7.70;99.90
40600;DHT22;26309;50.924;4.754;2023-04-25T04:15:58;7.70;99.90
40600;DHT22;26309;50.924;4.754;2023-04-25T04:18:24;7.80;99.90
40600;DHT22;26309;50.924;4.754;2023-04-25T04:20:50;7.80;99.90
40600;DHT22;26309;50.924;4.754;2023-04-25T04:23:16;7.90;99.90
40600;DHT22;26309;50.924;4.754;2023-04-25T04:25:41;8.10;99.90
40600;DHT22;26309;50.924;4.754;2023-04-25T04:28:07;8.20;99.90
40600;DHT22;26309;50.924;4.754;2023-04-25T04:30:33;8.30;99.90
40600;DHT22;26309;50.924;4.754;2023-04-25T04:33:02;8.30;99.90
40600;DHT22;26309;50.924;4.754;2023-04-25T04:35:28;8.40;99.90
40600;DHT22;26309;50.924;4.754;2023-04-25T04:37:54;8.40;99.90
40600;DHT22;26309;50.924;4.754;2023-04-25T04:40:21;8.50;99.90
40600;DHT22;26309;50.924;4.754;2023-04-25T04:42:47;8.50;99.90
40600;DHT22;26309;50.924;4.754;2023-04-25T04:45:14;8.60;99.90
40600;DHT22;26309;50.924;4.754;2023-04-25T04:47:41;8.60;99.90
40600;DHT22;26309;50.924;4.754;2023-04-25T04:50:09;8.60;99.90
40600;DHT22;26309;50.924;4.754;2023-04-25T04:52:36;8.50;99.90
40600;DHT22;26309;50.924;4.754;2023-04-25T04:55:03;8.50;99.90
40600;DHT22;26309;50.924;4.754;2023-04-25T04:57:29;8.60;99.90
40600;DHT22;26309;50.924;4.754;2023-04-25T04:59:56;8.70;99.90
40600;DHT22;26309;50.924;4.754;2023-04-25T05:02:23;8.80;99.90
40600;DHT22;26309;50.924;4.754;2023-04-25T05:04:49;8.80;99.90
40600;DHT22;26309;50.924;4.754;2023-04-25T05:07:17;8.90;99.90
40600;DHT22;26309;50.924;4.754;2023-04-25T05:09:44;8.90;99.90
40600;DHT22;26309;50.924;4.754;2023-04-25T05:12:10;8.90;99.90
40600;DHT22;26309;50.924;4.754;2023-04-25T05:14:35;8.90;99.90
40600;DHT22;26309;50.924;4.754;2023-04-25T05:17:02;8.90;99.90
40600;DHT22;26309;50.924;4.754;2023-04-25T05:19:33;8.70;99.90
40600;DHT22;26309;50.924;4.754;2023-04-25T05:21:59;8.70;99.90
40600;DHT22;26309;50.924;4.754;2023-04-25T05:24:25;8.80;99.90
40600;DHT22;26309;50.924;4.754;2023-04-25T05:26:50;8.70;99.90
40600;DHT22;26309;50.924;4.754;2023-04-25T05:29:16;8.60;99.90
40600;DHT22;26309;50.924;4.754;2023-04-25T05:31:42;8.60;99.90
40600;DHT22;26309;50.924;4.754;2023-04-25T05:34:08;8.60;99.90
40600;DHT22;26309;50.924;4.754;2023-04-25T05:36:34;8.60;99.90
40600;DHT22;26309;50.924;4.754;2023-04-25T05:39:03;8.70;99.90
40600;DHT22;26309;50.924;4.754;2023-04-25T05:41:29;8.70;99.90
40600;DHT22;26309;50.924;4.754;2023-04-25T05:43:55;8.70;99.90
40600;DHT22;26309;50.924;4.754;2023-04-25T05:46:21;8.70;99.90
40600;DHT22;26309;50.924;4.754;2023-04-25T05:48:47;8.80;99.90
40600;DHT22;26309;50.924;4.754;2023-04-25T05:51:13;8.80;99.90
40600;DHT22;26309;50.924;4.754;2023-04-25T05:53:42;8.90;99.90
40600;DHT22;26309;50.924;4.754;2023-04-25T05:56:08;8.90;99.90
40600;DHT22;26309;50.924;4.754;2023-04-25T05:58:34;8.90;99.90
40600;DHT22;26309;50.924;4.754;2023-04-25T06:01:00;9.00;99.90
40600;DHT22;26309;50.924;4.754;2023-04-25T06:03:26;9.10;99.90
40600;DHT22;26309;50.924;4.754;2023-04-25T06:05:52;9.20;99.90
40600;DHT22;26309;50.924;4.754;2023-04-25T06:08:18;9.40;99.90
40600;DHT22;26309;50.924;4.754;2023-04-25T06:10:44;9.40;99.90
40600;DHT22;26309;50.924;4.754;2023-04-25T06:13:10;9.50;99.90
40600;DHT22;26309;50.924;4.754;2023-04-25T06:15:36;9.70;99.90
40600;DHT22;26309;50.924;4.754;2023-04-25T06:18:02;9.70;99.90
40600;DHT22;26309;50.924;4.754;2023-04-25T06:20:28;9.80;99.90
40600;DHT22;26309;50.924;4.754;2023-04-25T06:22:54;9.90;99.90
40600;DHT22;26309;50.924;4.754;2023-04-25T06:25:20;10.10;99.90
40600;DHT22;26309;50.924;4.754;2023-04-25T06:27:46;10.10;99.90
40600;DHT22;26309;50.924;4.754;2023-04-25T06:30:12;9.90;99.90
40600;DHT22;26309;50.924;4.754;2023-04-25T06:32:38;10.00;99.90
40600;DHT22;26309;50.924;4.754;2023-04-25T06:35:05;10.00;99.90
40600;DHT22;26309;50.924;4.754;2023-04-25T06:37:31;10.10;99.90
40600;DHT22;26309;50.924;4.754;2023-04-25T06:39:57;9.80;99.90
40600;DHT22;26309;50.924;4.754;2023-04-25T06:42:22;9.80;99.90
40600;DHT22;26309;50.924;4.754;2023-04-25T06:44:48;9.80;99.90
40600;DHT22;26309;50.924;4.754;2023-04-25T06:47:15;9.60;99.90
40600;DHT22;26309;50.924;4.754;2023-04-25T06:49:41;9.80;99.90
40600;DHT22;26309;50.924;4.754;2023-04-25T06:52:07;9.90;99.90
40600;DHT22;26309;50.924;4.754;2023-04-25T06:54:34;10.10;99.90
40600;DHT22;26309;50.924;4.754;2023-04-25T06:57:00;10.00;99.90
40600;DHT22;26309;50.924;4.754;2023-04-25T06:59:26;9.90;99.90
40600;DHT22;26309;50.924;4.754;2023-04-25T07:01:52;9.90;99.90
40600;DHT22;26309;50.924;4.754;2023-04-25T07:04:18;9.90;99.90
40600;DHT22;26309;50.924;4.754;2023-04-25T07:06:44;9.70;99.90
40600;DHT22;26309;50.924;4.754;2023-04-25T07:09:10;9.60;99.90
40600;DHT22;26309;50.924;4.754;2023-04-25T07:11:37;9.90;99.90
40600;DHT22;26309;50.924;4.754;2023-04-25T07:14:03;10.10;99.90
40600;DHT22;26309;50.924;4.754;2023-04-25T07:16:29;10.20;99.90
40600;DHT22;26309;50.924;4.754;2023-04-25T07:18:55;10.50;99.90
40600;DHT22;26309;50.924;4.754;2023-04-25T07:21:21;10.60;99.90
40600;DHT22;26309;50.924;4.754;2023-04-25T07:23:47;10.80;99.90
40600;DHT22;26309;50.924;4.754;2023-04-25T07:26:15;11.00;99.90
40600;DHT22;26309;50.924;4.754;2023-04-25T07:28:42;11.10;99.90
40600;DHT22;26309;50.924;4.754;2023-04-25T07:31:08;11.30;99.90
40600;DHT22;26309;50.924;4.754;2023-04-25T07:33:35;11.10;99.90
40600;DHT22;26309;50.924;4.754;2023-04-25T07:36:00;10.80;99.90
40600;DHT22;26309;50.924;4.754;2023-04-25T07:38:26;10.80;99.90
40600;DHT22;26309;50.924;4.754;2023-04-25T07:40:53;11.00;99.90
40600;DHT22;26309;50.924;4.754;2023-04-25T07:43:19;11.00;99.90
40600;DHT22;26309;50.924;4.754;2023-04-25T07:45:45;10.50;99.90
40600;DHT22;26309;50.924;4.754;2023-04-25T07:48:16;10.60;99.90
40600;DHT22;26309;50.924;4.754;2023-04-25T07:50:43;10.70;99.90
40600;DHT22;26309;50.924;4.754;2023-04-25T07:53:09;10.40;99.90
40600;DHT22;26309;50.924;4.754;2023-04-25T07:55:34;10.30;99.90
40600;DHT22;26309;50.924;4.754;2023-04-25T07:58:02;10.00;99.90
40600;DHT22;26309;50.924;4.754;2023-04-25T08:00:28;10.00;99.90
40600;DHT22;26309;50.924;4.754;2023-04-25T08:02:54;9.90;99.90
40600;DHT22;26309;50.924;4.754;2023-04-25T08:05:20;9.70;99.90
40600;DHT22;26309;50.924;4.754;2023-04-25T08:07:46;9.90;99.90
40600;DHT22;26309;50.924;4.754;2023-04-25T08:10:12;10.00;99.90
40600;DHT22;26309;50.924;4.754;2023-04-25T08:12:38;10.30;99.90
40600;DHT22;26309;50.924;4.754;2023-04-25T08:15:04;10.40;99.90
40600;DHT22;26309;50.924;4.754;2023-04-25T08:17:30;10.30;99.90
40600;DHT22;26309;50.924;4.754;2023-04-25T08:19:56;10.50;99.90
40600;DHT22;26309;50.924;4.754;2023-04-25T08:22:22;10.40;99.90
40600;DHT22;26309;50.924;4.754;2023-04-25T08:24:48;10.20;99.90
40600;DHT22;26309;50.924;4.754;2023-04-25T08:27:14;10.10;99.90
40600;DHT22;26309;50.924;4.754;2023-04-25T08:29:41;10.10;99.90
40600;DHT22;26309;50.924;4.754;2023-04-25T08:32:08;10.20;99.90
40600;DHT22;26309;50.924;4.754;2023-04-25T08:34:33;10.20;99.90
40600;DHT22;26309;50.924;4.754;2023-04-25T08:36:59;10.10;99.90
40600;DHT22;26309;50.924;4.754;2023-04-25T08:39:25;9.90;99.90
40600;DHT22;26309;50.924;4.754;2023-04-25T08:41:51;9.90;99.90
40600;DHT22;26309;50.924;4.754;2023-04-25T08:44:19;10.00;99.90
40600;DHT22;26309;50.924;4.754;2023-04-25T08:46:47;10.10;99.90
40600;DHT22;26309;50.924;4.754;2023-04-25T08:49:17;10.10;99.90
40600;DHT22;26309;50.924;4.754;2023-04-25T08:51:45;10.50;99.90
40600;DHT22;26309;50.924;4.754;2023-04-25T08:54:16;10.70;99.90
40600;DHT22;26309;50.924;4.754;2023-04-25T08:56:47;10.80;99.90
40600;DHT22;26309;50.924;4.754;2023-04-25T08:59:13;10.70;99.90
40600;DHT22;26309;50.924;4.754;2023-04-25T09:01:40;10.70;99.90
40600;DHT22;26309;50.924;4.754;2023-04-25T09:04:06;10.80;99.90
40600;DHT22;26309;50.924;4.754;2023-04-25T09:06:32;11.10;99.90
40600;DHT22;26309;50.924;4.754;2023-04-25T09:09:05;11.50;99.90
40600;DHT22;26309;50.924;4.754;2023-04-25T09:11:32;11.90;99.90
40600;DHT22;26309;50.924;4.754;2023-04-25T09:14:11;12.30;99.90
40600;DHT22;26309;50.924;4.754;2023-04-25T09:19:35;11.90;99.90
40600;DHT22;26309;50.924;4.754;2023-04-25T09:22:03;11.70;99.90
40600;DHT22;26309;50.924;4.754;2023-04-25T09:24:42;11.30;99.90
40600;DHT22;26309;50.924;4.754;2023-04-25T09:27:12;11.30;99.90
40600;DHT22;26309;50.924;4.754;2023-04-25T09:29:40;10.90;99.90
40600;DHT22;26309;50.924;4.754;2023-04-25T09:32:18;10.80;99.90
40600;DHT22;26309;50.924;4.754;2023-04-25T09:34:49;10.50;99.90
40600;DHT22;26309;50.924;4.754;2023-04-25T09:37:27;10.30;99.90
40600;DHT22;26309;50.924;4.754;2023-04-25T09:39:57;10.30;99.90
40600;DHT22;26309;50.924;4.754;2023-04-25T09:42:26;10.40;99.90
40600;DHT22;26309;50.924;4.754;2023-04-25T09:44:54;10.50;99.90
40600;DHT22;26309;50.924;4.754;2023-04-25T09:47:20;10.20;99.90
40600;DHT22;26309;50.924;4.754;2023-04-25T09:49:49;10.10;99.90
40600;DHT22;26309;50.924;4.754;2023-04-25T09:52:22;10.10;99.90
40600;DHT22;26309;50.924;4.754;2023-04-25T09:54:49;10.10;99.90
40600;DHT22;26309;50.924;4.754;2023-04-25T09:59:49;10.10;99.90
40600;DHT22;26309;50.924;4.754;2023-04-25T10:02:20;10.00;99.90
40600;DHT22;26309;50.924;4.754;2023-04-25T10:04:54;10.20;99.90
40600;DHT22;26309;50.924;4.754;2023-04-25T10:07:26;10.40;99.90
40600;DHT22;26309;50.924;4.754;2023-04-25T10:09:59;10.60;99.90
40600;DHT22;26309;50.924;4.754;2023-04-25T10:12:26;10.90;99.90
40600;DHT22;26309;50.924;4.754;2023-04-25T10:14:54;11.10;99.90
40600;DHT22;26309;50.924;4.754;2023-04-25T10:17:20;11.20;99.90
40600;DHT22;26309;50.924;4.754;2023-04-25T10:19:47;11.20;99.90
40600;DHT22;26309;50.924;4.754;2023-04-25T10:22:18;11.30;99.90
40600;DHT22;26309;50.924;4.754;2023-04-25T10:24:46;11.30;99.90
40600;DHT22;26309;50.924;4.754;2023-04-25T10:27:12;11.50;99.90
40600;DHT22;26309;50.924;4.754;2023-04-25T10:29:39;11.70;99.90
40600;DHT22;26309;50.924;4.754;2023-04-25T10:32:09;12.10;99.90
40600;DHT22;26309;50.924;4.754;2023-04-25T10:34:43;11.90;99.20
40600;DHT22;26309;50.924;4.754;2023-04-25T10:37:12;11.90;97.70
40600;DHT22;26309;50.924;4.754;2023-04-25T10:39:40;11.80;99.90
40600;DHT22;26309;50.924;4.754;2023-04-25T10:42:07;11.90;99.90
40600;DHT22;26309;50.924;4.754;2023-04-25T10:44:37;12.00;99.90
40600;DHT22;26309;50.924;4.754;2023-04-25T10:47:07;11.90;96.50
40600;DHT22;26309;50.924;4.754;2023-04-25T10:49:38;12.10;96.90
40600;DHT22;26309;50.924;4.754;2023-04-25T10:52:27;12.30;98.90
40600;DHT22;26309;50.924;4.754;2023-04-25T10:54:57;12.30;97.40
40600;DHT22;26309;50.924;4.754;2023-04-25T10:57:36;12.60;96.60
40600;DHT22;26309;50.924;4.754;2023-04-25T11:00:17;12.80;95.80
40600;DHT22;26309;50.924;4.754;2023-04-25T11:02:47;12.80;92.40
40600;DHT22;26309;50.924;4.754;2023-04-25T11:05:26;12.70;93.70
40600;DHT22;26309;50.924;4.754;2023-04-25T11:07:55;12.40;92.80
40600;DHT22;26309;50.924;4.754;2023-04-25T11:10:30;12.40;93.50
40600;DHT22;26309;50.924;4.754;2023-04-25T11:12:57;12.40;93.70
40600;DHT22;26309;50.924;4.754;2023-04-25T11:15:23;11.90;95.30
40600;DHT22;26309;50.924;4.754;2023-04-25T11:17:51;11.90;95.70
40600;DHT22;26309;50.924;4.754;2023-04-25T11:20:17;11.90;97.40
40600;DHT22;26309;50.924;4.754;2023-04-25T11:22:45;11.90;98.00
40600;DHT22;26309;50.924;4.754;2023-04-25T11:25:13;12.10;96.80
40600;DHT22;26309;50.924;4.754;2023-04-25T11:27:59;12.30;96.00
40600;DHT22;26309;50.924;4.754;2023-04-25T11:30:27;12.50;96.20
40600;DHT22;26309;50.924;4.754;2023-04-25T11:32:56;12.70;96.50
40600;DHT22;26309;50.924;4.754;2023-04-25T11:35:22;12.80;98.40
40600;DHT22;26309;50.924;4.754;2023-04-25T11:37:48;12.80;96.60
40600;DHT22;26309;50.924;4.754;2023-04-25T11:40:15;12.30;95.80
40600;DHT22;26309;50.924;4.754;2023-04-25T11:42:45;12.30;96.90
40600;DHT22;26309;50.924;4.754;2023-04-25T11:45:11;12.40;95.20
40600;DHT22;26309;50.924;4.754;2023-04-25T11:47:37;12.50;95.70
40600;DHT22;26309;50.924;4.754;2023-04-25T11:50:05;12.30;96.30
40600;DHT22;26309;50.924;4.754;2023-04-25T11:52:38;12.30;96.80
40600;DHT22;26309;50.924;4.754;2023-04-25T11:55:17;11.90;97.80
40600;DHT22;26309;50.924;4.754;2023-04-25T11:57:45;11.70;98.10
40600;DHT22;26309;50.924;4.754;2023-04-25T12:00:16;11.50;98.60
40600;DHT22;26309;50.924;4.754;2023-04-25T12:02:44;11.70;99.40
40600;DHT22;26309;50.924;4.754;2023-04-25T12:05:11;11.90;98.70
40600;DHT22;26309;50.924;4.754;2023-04-25T12:07:38;12.20;97.40
40600;DHT22;26309;50.924;4.754;2023-04-25T12:10:12;12.40;95.70
40600;DHT22;26309;50.924;4.754;2023-04-25T12:12:41;12.30;93.80
40600;DHT22;26309;50.924;4.754;2023-04-25T12:15:15;12.40;94.10
40600;DHT22;26309;50.924;4.754;2023-04-25T12:17:45;12.80;95.00
40600;DHT22;26309;50.924;4.754;2023-04-25T12:20:16;12.80;91.60
40600;DHT22;26309;50.924;4.754;2023-04-25T12:22:44;12.50;93.60
40600;DHT22;26309;50.924;4.754;2023-04-25T12:25:12;12.60;91.90
40600;DHT22;26309;50.924;4.754;2023-04-25T12:27:40;12.50;92.70
40600;DHT22;26309;50.924;4.754;2023-04-25T12:30:09;12.70;92.30
40600;DHT22;26309;50.924;4.754;2023-04-25T12:32:36;13.10;92.10
40600;DHT22;26309;50.924;4.754;2023-04-25T12:35:04;13.40;90.00
40600;DHT22;26309;50.924;4.754;2023-04-25T12:37:30;13.50;91.70
40600;DHT22;26309;50.924;4.754;2023-04-25T12:39:56;13.10;91.70
40600;DHT22;26309;50.924;4.754;2023-04-25T12:42:22;12.80;87.80
40600;DHT22;26309;50.924;4.754;2023-04-25T12:44:48;12.50;86.20
40600;DHT22;26309;50.924;4.754;2023-04-25T12:47:14;12.40;85.00
40600;DHT22;26309;50.924;4.754;2023-04-25T12:49:40;12.50;84.50
40600;DHT22;26309;50.924;4.754;2023-04-25T12:52:06;12.30;84.90
40600;DHT22;26309;50.924;4.754;2023-04-25T12:54:32;12.50;87.20
40600;DHT22;26309;50.924;4.754;2023-04-25T12:56:57;12.40;88.60
40600;DHT22;26309;50.924;4.754;2023-04-25T12:59:23;12.20;90.70
40600;DHT22;26309;50.924;4.754;2023-04-25T13:01:49;12.20;90.10
40600;DHT22;26309;50.924;4.754;2023-04-25T13:04:22;12.30;88.10
40600;DHT22;26309;50.924;4.754;2023-04-25T13:06:48;12.10;87.90
40600;DHT22;26309;50.924;4.754;2023-04-25T13:09:14;12.10;89.00
40600;DHT22;26309;50.924;4.754;2023-04-25T13:11:41;12.20;89.60
40600;DHT22;26309;50.924;4.754;2023-04-25T13:14:06;12.20;89.10
40600;DHT22;26309;50.924;4.754;2023-04-25T13:16:33;12.30;90.20
40600;DHT22;26309;50.924;4.754;2023-04-25T13:18:59;12.10;91.50
40600;DHT22;26309;50.924;4.754;2023-04-25T13:21:25;12.00;92.50
40600;DHT22;26309;50.924;4.754;2023-04-25T13:23:51;11.90;93.00
40600;DHT22;26309;50.924;4.754;2023-04-25T13:26:16;11.90;92.00
40600;DHT22;26309;50.924;4.754;2023-04-25T13:28:42;12.10;91.40
40600;DHT22;26309;50.924;4.754;2023-04-25T13:31:08;12.10;91.20
40600;DHT22;26309;50.924;4.754;2023-04-25T13:33:34;12.20;91.90
40600;DHT22;26309;50.924;4.754;2023-04-25T13:36:01;12.30;89.50
40600;DHT22;26309;50.924;4.754;2023-04-25T13:38:27;12.40;89.00
40600;DHT22;26309;50.924;4.754;2023-04-25T13:40:53;12.50;89.30
40600;DHT22;26309;50.924;4.754;2023-04-25T13:43:19;12.60;87.30
40600;DHT22;26309;50.924;4.754;2023-04-25T13:45:46;12.40;87.80
40600;DHT22;26309;50.924;4.754;2023-04-25T13:48:12;12.40;89.50
40600;DHT22;26309;50.924;4.754;2023-04-25T13:50:39;12.10;89.50
40600;DHT22;26309;50.924;4.754;2023-04-25T13:53:04;12.30;90.70
40600;DHT22;26309;50.924;4.754;2023-04-25T13:55:31;12.70;88.50
40600;DHT22;26309;50.924;4.754;2023-04-25T13:57:57;13.00;83.90
40600;DHT22;26309;50.924;4.754;2023-04-25T14:00:23;13.00;81.60
40600;DHT22;26309;50.924;4.754;2023-04-25T14:02:48;12.80;78.50
40600;DHT22;26309;50.924;4.754;2023-04-25T14:05:15;12.60;82.30
40600;DHT22;26309;50.924;4.754;2023-04-25T14:07:41;12.30;82.60
40600;DHT22;26309;50.924;4.754;2023-04-25T14:10:07;12.20;83.50
40600;DHT22;26309;50.924;4.754;2023-04-25T14:12:33;12.10;86.50
40600;DHT22;26309;50.924;4.754;2023-04-25T14:14:59;12.10;83.70
40600;DHT22;26309;50.924;4.754;2023-04-25T14:17:24;12.20;84.80
40600;DHT22;26309;50.924;4.754;2023-04-25T14:19:50;12.70;85.60
40600;DHT22;26309;50.924;4.754;2023-04-25T14:22:16;12.70;84.80
40600;DHT22;26309;50.924;4.754;2023-04-25T14:24:42;12.50;84.90
40600;DHT22;26309;50.924;4.754;2023-04-25T14:27:08;12.50;87.30
40600;DHT22;26309;50.924;4.754;2023-04-25T14:29:34;12.60;86.60
40600;DHT22;26309;50.924;4.754;2023-04-25T14:32:00;12.50;87.30
40600;DHT22;26309;50.924;4.754;2023-04-25T14:34:26;12.70;85.50
40600;DHT22;26309;50.924;4.754;2023-04-25T14:36:52;12.80;85.50
40600;DHT22;26309;50.924;4.754;2023-04-25T14:39:18;12.90;82.60
40600;DHT22;26309;50.924;4.754;2023-04-25T14:41:44;12.90;81.50
40600;DHT22;26309;50.924;4.754;2023-04-25T14:44:10;13.00;79.90
40600;DHT22;26309;50.924;4.754;2023-04-25T14:46:36;13.50;81.80
40600;DHT22;26309;50.924;4.754;2023-04-25T14:49:04;14.10;77.10
40600;DHT22;26309;50.924;4.754;2023-04-25T14:51:30;14.80;76.70
40600;DHT22;26309;50.924;4.754;2023-04-25T14:53:57;15.30;71.30
40600;DHT22;26309;50.924;4.754;2023-04-25T14:56:23;15.00;73.10
40600;DHT22;26309;50.924;4.754;2023-04-25T14:58:49;14.60;73.90
40600;DHT22;26309;50.924;4.754;2023-04-25T15:01:18;13.90;78.50
40600;DHT22;26309;50.924;4.754;2023-04-25T15:03:45;13.00;81.60
40600;DHT22;26309;50.924;4.754;2023-04-25T15:06:11;12.50;83.50
40600;DHT22;26309;50.924;4.754;2023-04-25T15:08:40;12.50;85.60
40600;DHT22;26309;50.924;4.754;2023-04-25T15:11:06;12.40;82.50
40600;DHT22;26309;50.924;4.754;2023-04-25T15:13:32;12.40;84.50
40600;DHT22;26309;50.924;4.754;2023-04-25T15:16:00;12.40;84.90
40600;DHT22;26309;50.924;4.754;2023-04-25T15:18:26;12.50;84.70
40600;DHT22;26309;50.924;4.754;2023-04-25T15:20:52;12.80;82.30
40600;DHT22;26309;50.924;4.754;2023-04-25T15:23:19;13.10;82.50
40600;DHT22;26309;50.924;4.754;2023-04-25T15:25:45;13.90;78.70
40600;DHT22;26309;50.924;4.754;2023-04-25T15:28:11;14.50;75.00
40600;DHT22;26309;50.924;4.754;2023-04-25T15:30:42;14.90;76.30
40600;DHT22;26309;50.924;4.754;2023-04-25T15:33:08;15.00;73.80
40600;DHT22;26309;50.924;4.754;2023-04-25T15:35:34;14.70;73.70
40600;DHT22;26309;50.924;4.754;2023-04-25T15:38:00;15.30;71.50
40600;DHT22;26309;50.924;4.754;2023-04-25T15:40:26;15.90;70.00
40600;DHT22;26309;50.924;4.754;2023-04-25T15:42:52;16.40;69.80